sensor_id;sensor_type;location;lat;lon;timestamp;pressure;altitude;pressure_sealevel;temperature;humidity
33153;BME280;19509;43.862;26.176;2023-05-08T00:00:20;100954.22;;;12.50;54.29
33153;BME280;19509;43.862;26.176;2023-05-08T00:02:46;100946.13;;;12.50;55.38
33153;BME280;19509;43.862;26.176;2023-05-08T00:05:11;100942.00;;;12.41;54.80
33153;BME280;19509;43.862;26.176;2023-05-08T00:07:37;100943.50;;;12.30;55.19
33153;BME280;19509;43.862;26.176;2023-05-08T00:10:04;100939.38;;;12.21;55.97
33153;BME280;19509;43.862;26.176;2023-05-08T00:12:29;100944.13;;;12.25;55.79
33153;BME280;19509;43.862;26.176;2023-05-08T00:14:55;100937.31;;;12.23;54.12
33153;BME280;19509;43.862;26.176;2023-05-08T00:17:20;100934.56;;;12.29;53.48
33153;BME280;19509;43.862;26.176;2023-05-08T00:19:46;100940.81;;;12.30;54.59
33153;BME280;19509;43.862;26.176;2023-05-08T00:22:12;100926.94;;;12.20;55.92
33153;BME280;19509;43.862;26.176;2023-05-08T00:24:38;100926.53;;;12.16;56.07
33153;BME280;19509;43.862;26.176;2023-05-08T00:27:03;100928.84;;;12.06;57.61
33153;BME280;19509;43.862;26.176;2023-05-08T00:29:29;100930.53;;;11.94;58.06
33153;BME280;19509;43.862;26.176;2023-05-08T00:31:54;100928.06;;;11.86;58.40
33153;BME280;19509;43.862;26.176;2023-05-08T00:34:20;100922.66;;;11.79;58.91
33153;BME280;19509;43.862;26.176;2023-05-08T00:36:46;100926.38;;;11.78;58.66
33153;BME280;19509;43.862;26.176;2023-05-08T00:39:11;100930.31;;;11.75;59.16
33153;BME280;19509;43.862;26.176;2023-05-08T00:41:37;100933.03;;;11.69;59.58
33153;BME280;19509;43.862;26.176;2023-05-08T00:44:03;100935.50;;;11.64;60.07
33153;BME280;19509;43.862;26.176;2023-05-08T00:46:29;100933.88;;;11.56;60.83
33153;BME280;19509;43.862;26.176;2023-05-08T00:48:55;100939.25;;;11.49;61.16
33153;BME280;19509;43.862;26.176;2023-05-08T00:51:23;100937.38;;;11.43;61.96
33153;BME280;19509;43.862;26.176;2023-05-08T00:53:49;100936.16;;;11.39;62.53
33153;BME280;19509;43.862;26.176;2023-05-08T00:56:15;100936.56;;;11.29;63.40
33153;BME280;19509;43.862;26.176;2023-05-08T00:58:41;100934.47;;;11.18;63.45
33153;BME280;19509;43.862;26.176;2023-05-08T01:01:08;100931.16;;;11.16;63.04
33153;BME280;19509;43.862;26.176;2023-05-08T01:03:35;100929.09;;;11.11;63.50
33153;BME280;19509;43.862;26.176;2023-05-08T01:06:03;100931.78;;;11.18;63.44
33153;BME280;19509;43.862;26.176;2023-05-08T01:08:30;100931.56;;;11.13;64.01
33153;BME280;19509;43.862;26.176;2023-05-08T01:16:15;100925.13;;;11.21;62.03
33153;BME280;19509;43.862;26.176;2023-05-08T01:18:46;100927.44;;;11.30;63.18
33153;BME280;19509;43.862;26.176;2023-05-08T01:21:36;100911.91;;;11.32;65.22
33153;BME280;19509;43.862;26.176;2023-05-08T01:24:32;100916.88;;;11.35;65.82
33153;BME280;19509;43.862;26.176;2023-05-08T01:32:39;100914.53;;;10.86;66.46
33153;BME280;19509;43.862;26.176;2023-05-08T01:35:26;100909.78;;;10.88;66.74
33153;BME280;19509;43.862;26.176;2023-05-08T01:38:05;100903.59;;;10.94;66.97
33153;BME280;19509;43.862;26.176;2023-05-08T01:43:29;100889.66;;;10.64;67.24
33153;BME280;19509;43.862;26.176;2023-05-08T01:45:58;100893.63;;;10.81;66.97
33153;BME280;19509;43.862;26.176;2023-05-08T01:48:33;100895.28;;;10.89;66.77
33153;BME280;19509;43.862;26.176;2023-05-08T01:51:05;100889.09;;;11.02;66.57
33153;BME280;19509;43.862;26.176;2023-05-08T01:53:41;100883.28;;;11.18;65.34
33153;BME280;19509;43.862;26.176;2023-05-08T01:56:20;100875.63;;;11.22;65.32
33153;BME280;19509;43.862;26.176;2023-05-08T01:58:50;100877.28;;;11.36;64.12
33153;BME280;19509;43.862;26.176;2023-05-08T02:01:21;100880.78;;;11.23;64.72
33153;BME280;19509;43.862;26.176;2023-05-08T02:03:47;100885.56;;;11.01;64.59
33153;BME280;19509;43.862;26.176;2023-05-08T02:06:14;100888.88;;;11.10;63.54
33153;BME280;19509;43.862;26.176;2023-05-08T02:08:42;100890.97;;;11.21;63.57
33153;BME280;19509;43.862;26.176;2023-05-08T02:11:10;100891.97;;;11.20;63.94
33153;BME280;19509;43.862;26.176;2023-05-08T02:13:38;100890.94;;;11.41;65.66
33153;BME280;19509;43.862;26.176;2023-05-08T02:16:06;100897.19;;;11.35;64.45
33153;BME280;19509;43.862;26.176;2023-05-08T02:18:33;100891.56;;;11.17;64.37
33153;BME280;19509;43.862;26.176;2023-05-08T02:21:01;100905.25;;;11.15;65.24
33153;BME280;19509;43.862;26.176;2023-05-08T02:23:29;100890.75;;;11.23;65.70
33153;BME280;19509;43.862;26.176;2023-05-08T02:25:55;100905.28;;;11.35;65.44
33153;BME280;19509;43.862;26.176;2023-05-08T02:28:22;100911.66;;;11.47;64.21
33153;BME280;19509;43.862;26.176;2023-05-08T02:30:49;100913.53;;;11.47;63.44
33153;BME280;19509;43.862;26.176;2023-05-08T02:33:16;100920.56;;;11.68;62.99
33153;BME280;19509;43.862;26.176;2023-05-08T02:35:43;100920.38;;;11.36;63.65
33153;BME280;19509;43.862;26.176;2023-05-08T02:38:11;100926.16;;;11.13;63.61
33153;BME280;19509;43.862;26.176;2023-05-08T02:40:41;100930.34;;;11.35;63.70
33153;BME280;19509;43.862;26.176;2023-05-08T02:43:08;100939.25;;;11.36;62.54
33153;BME280;19509;43.862;26.176;2023-05-08T02:46:15;100939.25;;;11.36;62.38
33153;BME280;19509;43.862;26.176;2023-05-08T02:51:42;100933.63;;;11.71;62.03
33153;BME280;19509;43.862;26.176;2023-05-08T02:54:24;100934.03;;;11.68;64.36
33153;BME280;19509;43.862;26.176;2023-05-08T02:56:59;100933.88;;;11.49;65.45
33153;BME280;19509;43.862;26.176;2023-05-08T02:59:47;100936.16;;;11.39;64.36
33153;BME280;19509;43.862;26.176;2023-05-08T03:02:40;100933.63;;;11.31;66.88
33153;BME280;19509;43.862;26.176;2023-05-08T03:05:30;100927.41;;;11.17;66.98
33153;BME280;19509;43.862;26.176;2023-05-08T03:08:02;100938.41;;;11.29;64.56
33153;BME280;19509;43.862;26.176;2023-05-08T03:10:32;100945.22;;;10.92;65.85
33153;BME280;19509;43.862;26.176;2023-05-08T03:12:59;100948.75;;;11.05;66.58
33153;BME280;19509;43.862;26.176;2023-05-08T03:15:32;100957.25;;;11.09;65.63
33153;BME280;19509;43.862;26.176;2023-05-08T03:18:07;100964.13;;;11.25;65.75
33153;BME280;19509;43.862;26.176;2023-05-08T03:20:36;100970.78;;;11.42;64.07
33153;BME280;19509;43.862;26.176;2023-05-08T03:23:04;100973.88;;;11.32;66.17
33153;BME280;19509;43.862;26.176;2023-05-08T03:25:30;100968.88;;;11.29;66.56
33153;BME280;19509;43.862;26.176;2023-05-08T03:27:58;100963.50;;;11.23;67.11
33153;BME280;19509;43.862;26.176;2023-05-08T03:30:25;100968.47;;;11.26;66.94
33153;BME280;19509;43.862;26.176;2023-05-08T03:32:52;100964.94;;;11.25;68.13
33153;BME280;19509;43.862;26.176;2023-05-08T03:35:18;100961.19;;;11.13;68.94
33153;BME280;19509;43.862;26.176;2023-05-08T03:37:45;100964.69;;;11.00;70.54
33153;BME280;19509;43.862;26.176;2023-05-08T03:40:11;100957.84;;;10.98;70.15
33153;BME280;19509;43.862;26.176;2023-05-08T03:42:37;100976.09;;;11.09;69.13
33153;BME280;19509;43.862;26.176;2023-05-08T03:45:05;100981.50;;;11.09;67.67
33153;BME280;19509;43.862;26.176;2023-05-08T03:47:31;100980.47;;;11.17;66.68
33153;BME280;19509;43.862;26.176;2023-05-08T03:49:59;100980.66;;;11.08;68.36
33153;BME280;19509;43.862;26.176;2023-05-08T03:52:25;100977.75;;;11.10;69.87
33153;BME280;19509;43.862;26.176;2023-05-08T03:54:51;100988.50;;;11.03;68.25
33153;BME280;19509;43.862;26.176;2023-05-08T03:57:16;100984.81;;;11.11;70.37
33153;BME280;19509;43.862;26.176;2023-05-08T04:05:24;100985.28;;;11.34;70.84
33153;BME280;19509;43.862;26.176;2023-05-08T04:08:33;100980.31;;;11.38;70.36
33153;BME280;19509;43.862;26.176;2023-05-08T04:11:11;100991.91;;;11.72;66.05
33153;BME280;19509;43.862;26.176;2023-05-08T04:13:48;100997.94;;;11.74;65.77
33153;BME280;19509;43.862;26.176;2023-05-08T04:16:23;100987.78;;;11.69;64.96
33153;BME280;19509;43.862;26.176;2023-05-08T04:18:55;100998.56;;;11.69;65.28
33153;BME280;19509;43.862;26.176;2023-05-08T04:21:24;100995.44;;;11.72;65.20
33153;BME280;19509;43.862;26.176;2023-05-08T04:23:51;100993.59;;;11.93;64.58
33153;BME280;19509;43.862;26.176;2023-05-08T04:26:20;100997.31;;;11.92;65.63
33153;BME280;19509;43.862;26.176;2023-05-08T04:28:47;100995.88;;;12.02;66.57
33153;BME280;19509;43.862;26.176;2023-05-08T04:31:14;100995.44;;;12.05;65.05
33153;BME280;19509;43.862;26.176;2023-05-08T04:33:44;100989.84;;;12.00;64.08
33153;BME280;19509;43.862;26.176;2023-05-08T04:36:13;100989.22;;;12.05;64.52
33153;BME280;19509;43.862;26.176;2023-05-08T04:38:41;100989.63;;;12.08;66.09
33153;BME280;19509;43.862;26.176;2023-05-08T04:41:07;100978.66;;;12.03;66.31
33153;BME280;19509;43.862;26.176;2023-05-08T04:43:34;100990.22;;;12.24;67.93
33153;BME280;19509;43.862;26.176;2023-05-08T04:45:59;100984.41;;;12.27;68.98
33153;BME280;19509;43.862;26.176;2023-05-08T04:48:25;100984.56;;;12.39;67.18
33153;BME280;19509;43.862;26.176;2023-05-08T04:50:51;100989.53;;;12.42;67.36
33153;BME280;19509;43.862;26.176;2023-05-08T04:53:16;100987.44;;;12.57;66.78
33153;BME280;19509;43.862;26.176;2023-05-08T04:55:41;100991.53;;;12.66;67.63
33153;BME280;19509;43.862;26.176;2023-05-08T04:58:09;100998.41;;;12.62;66.23
33153;BME280;19509;43.862;26.176;2023-05-08T05:00:35;100996.28;;;12.77;66.41
33153;BME280;19509;43.862;26.176;2023-05-08T05:03:00;100987.84;;;12.99;66.61
33153;BME280;19509;43.862;26.176;2023-05-08T05:05:26;100985.75;;;13.39;65.29
33153;BME280;19509;43.862;26.176;2023-05-08T05:07:51;100985.75;;;13.39;65.29
33153;BME280;19509;43.862;26.176;2023-05-08T05:10:17;100985.94;;;14.50;60.52
33153;BME280;19509;43.862;26.176;2023-05-08T05:12:43;100988.88;;;15.15;58.79
33153;BME280;19509;43.862;26.176;2023-05-08T05:15:08;100986.78;;;15.71;56.07
33153;BME280;19509;43.862;26.176;2023-05-08T05:17:34;100996.59;;;15.83;54.60
33153;BME280;19509;43.862;26.176;2023-05-08T05:20:00;101000.06;;;15.60;55.83
33153;BME280;19509;43.862;26.176;2023-05-08T05:22:25;100995.94;;;15.58;56.61
33153;BME280;19509;43.862;26.176;2023-05-08T05:24:52;100995.56;;;15.43;57.01
33153;BME280;19509;43.862;26.176;2023-05-08T05:27:18;101000.47;;;15.04;59.63
33153;BME280;19509;43.862;26.176;2023-05-08T05:29:43;101001.03;;;14.64;59.52
33153;BME280;19509;43.862;26.176;2023-05-08T05:32:09;100999.63;;;14.36;61.05
33153;BME280;19509;43.862;26.176;2023-05-08T05:34:36;100980.38;;;14.44;61.76
33153;BME280;19509;43.862;26.176;2023-05-08T05:37:01;100978.97;;;14.24;62.84
33153;BME280;19509;43.862;26.176;2023-05-08T05:39:27;100972.47;;;14.25;62.40
33153;BME280;19509;43.862;26.176;2023-05-08T05:41:52;100978.38;;;14.58;62.22
33153;BME280;19509;43.862;26.176;2023-05-08T05:44:18;100985.81;;;14.63;58.91
33153;BME280;19509;43.862;26.176;2023-05-08T05:46:43;100978.66;;;14.69;57.85
33153;BME280;19509;43.862;26.176;2023-05-08T05:49:09;100979.06;;;14.54;59.94
33153;BME280;19509;43.862;26.176;2023-05-08T05:51:36;63304.72;;;14.61;100.00
33153;BME280;19509;43.862;26.176;2023-05-08T05:54:01;63304.72;;;-144.22;100.00
33153;BME280;19509;43.862;26.176;2023-05-08T05:56:27;100982.50;;;14.61;61.16
33153;BME280;19509;43.862;26.176;2023-05-08T05:58:53;100987.75;;;14.37;58.74
33153;BME280;19509;43.862;26.176;2023-05-08T06:01:18;100986.41;;;14.65;60.08
33153;BME280;19509;43.862;26.176;2023-05-08T06:03:44;100980.97;;;14.83;59.37
33153;BME280;19509;43.862;26.176;2023-05-08T06:06:10;100976.72;;;14.87;56.30
33153;BME280;19509;43.862;26.176;2023-05-08T06:08:35;100969.81;;;14.92;56.09
33153;BME280;19509;43.862;26.176;2023-05-08T06:11:01;100974.47;;;15.14;56.23
33153;BME280;19509;43.862;26.176;2023-05-08T06:13:26;100969.91;;;15.15;54.70
33153;BME280;19509;43.862;26.176;2023-05-08T06:15:55;100970.31;;;15.00;56.69
33153;BME280;19509;43.862;26.176;2023-05-08T06:18:23;100959.78;;;15.22;57.97
33153;BME280;19509;43.862;26.176;2023-05-08T06:20:48;100955.91;;;15.42;53.65
33153;BME280;19509;43.862;26.176;2023-05-08T06:23:18;100960.19;;;15.61;53.40
33153;BME280;19509;43.862;26.176;2023-05-08T06:25:44;100964.00;;;15.95;51.08
33153;BME280;19509;43.862;26.176;2023-05-08T06:28:10;100961.28;;;15.95;51.42
33153;BME280;19509;43.862;26.176;2023-05-08T06:30:35;100954.06;;;16.24;53.35
33153;BME280;19509;43.862;26.176;2023-05-08T06:33:01;100938.97;;;16.05;54.51
33153;BME280;19509;43.862;26.176;2023-05-08T06:35:26;100939.81;;;15.82;55.83
33153;BME280;19509;43.862;26.176;2023-05-08T06:37:53;100938.16;;;16.04;51.57
33153;BME280;19509;43.862;26.176;2023-05-08T06:40:20;100938.38;;;16.15;53.20
33153;BME280;19509;43.862;26.176;2023-05-08T06:42:45;100940.84;;;16.28;55.15
33153;BME280;19509;43.862;26.176;2023-05-08T06:45:11;100947.59;;;16.14;53.99
33153;BME280;19509;43.862;26.176;2023-05-08T06:47:37;100959.41;;;15.96;54.68
33153;BME280;19509;43.862;26.176;2023-05-08T06:50:02;100956.22;;;15.99;54.90
33153;BME280;19509;43.862;26.176;2023-05-08T06:52:28;100954.31;;;16.11;54.22
33153;BME280;19509;43.862;26.176;2023-05-08T06:54:54;100952.88;;;16.32;54.71
33153;BME280;19509;43.862;26.176;2023-05-08T06:57:19;100959.88;;;16.97;53.28
33153;BME280;19509;43.862;26.176;2023-05-08T06:59:45;100962.69;;;16.85;50.53
33153;BME280;19509;43.862;26.176;2023-05-08T07:02:10;100958.53;;;16.83;50.58
33153;BME280;19509;43.862;26.176;2023-05-08T07:04:36;100959.63;;;16.82;56.65
33153;BME280;19509;43.862;26.176;2023-05-08T07:07:02;100956.00;;;16.93;53.19
33153;BME280;19509;43.862;26.176;2023-05-08T07:09:28;100963.91;;;16.54;51.33
33153;BME280;19509;43.862;26.176;2023-05-08T07:11:53;100963.56;;;16.50;51.24
33153;BME280;19509;43.862;26.176;2023-05-08T07:14:18;100965.94;;;16.47;52.99
33153;BME280;19509;43.862;26.176;2023-05-08T07:16:44;100968.84;;;16.57;54.85
33153;BME280;19509;43.862;26.176;2023-05-08T07:19:10;100970.00;;;16.73;55.08
33153;BME280;19509;43.862;26.176;2023-05-08T07:21:35;100971.06;;;16.84;55.42
33153;BME280;19509;43.862;26.176;2023-05-08T07:24:01;100967.91;;;16.75;55.34
33153;BME280;19509;43.862;26.176;2023-05-08T07:26:27;100965.09;;;16.98;55.65
33153;BME280;19509;43.862;26.176;2023-05-08T07:28:52;100957.88;;;17.38;51.53
33153;BME280;19509;43.862;26.176;2023-05-08T07:31:19;100955.75;;;17.57;53.38
33153;BME280;19509;43.862;26.176;2023-05-08T07:33:44;100963.00;;;17.51;52.26
33153;BME280;19509;43.862;26.176;2023-05-08T07:36:11;100971.69;;;17.82;54.55
33153;BME280;19509;43.862;26.176;2023-05-08T07:38:37;100968.78;;;18.27;51.18
33153;BME280;19509;43.862;26.176;2023-05-08T07:41:02;100968.59;;;18.34;51.51
33153;BME280;19509;43.862;26.176;2023-05-08T07:43:29;100967.28;;;18.58;55.17
33153;BME280;19509;43.862;26.176;2023-05-08T07:45:55;100973.84;;;18.79;53.57
33153;BME280;19509;43.862;26.176;2023-05-08T07:48:21;100978.97;;;18.15;52.18
33153;BME280;19509;43.862;26.176;2023-05-08T07:50:48;100979.34;;;18.02;51.74
33153;BME280;19509;43.862;26.176;2023-05-08T07:53:14;100970.00;;;18.14;51.36
33153;BME280;19509;43.862;26.176;2023-05-08T07:55:40;100977.19;;;18.04;53.30
33153;BME280;19509;43.862;26.176;2023-05-08T07:58:05;100982.25;;;18.17;47.33
33153;BME280;19509;43.862;26.176;2023-05-08T08:00:31;100976.91;;;17.83;50.67
33153;BME280;19509;43.862;26.176;2023-05-08T08:02:56;100974.34;;;17.77;50.73
33153;BME280;19509;43.862;26.176;2023-05-08T08:05:22;100978.41;;;17.62;53.20
33153;BME280;19509;43.862;26.176;2023-05-08T08:07:47;100974.97;;;17.33;52.91
33153;BME280;19509;43.862;26.176;2023-05-08T08:10:13;100977.84;;;17.26;53.01
33153;BME280;19509;43.862;26.176;2023-05-08T08:12:38;100976.63;;;17.51;55.19
33153;BME280;19509;43.862;26.176;2023-05-08T08:15:04;100977.72;;;17.84;53.27
33153;BME280;19509;43.862;26.176;2023-05-08T08:17:30;100977.09;;;18.15;52.60
33153;BME280;19509;43.862;26.176;2023-05-08T08:19:55;100982.91;;;17.85;50.20
33153;BME280;19509;43.862;26.176;2023-05-08T08:22:21;100984.38;;;17.76;55.26
33153;BME280;19509;43.862;26.176;2023-05-08T08:24:47;100982.66;;;17.87;52.08
33153;BME280;19509;43.862;26.176;2023-05-08T08:27:12;100981.31;;;17.89;51.78
33153;BME280;19509;43.862;26.176;2023-05-08T08:29:39;100971.69;;;17.82;52.35
33153;BME280;19509;43.862;26.176;2023-05-08T08:32:04;100967.16;;;17.87;53.72
33153;BME280;19509;43.862;26.176;2023-05-08T08:34:32;100979.94;;;17.87;55.10
33153;BME280;19509;43.862;26.176;2023-05-08T08:36:57;100977.25;;;18.09;55.58
33153;BME280;19509;43.862;26.176;2023-05-08T08:39:23;100974.31;;;17.93;52.23
33153;BME280;19509;43.862;26.176;2023-05-08T08:41:48;100974.97;;;17.67;51.61
33153;BME280;19509;43.862;26.176;2023-05-08T08:44:14;100972.47;;;17.65;52.86
33153;BME280;19509;43.862;26.176;2023-05-08T08:46:46;100970.69;;;17.54;53.71
33153;BME280;19509;43.862;26.176;2023-05-08T08:49:17;100975.78;;;17.50;53.94
33153;BME280;19509;43.862;26.176;2023-05-08T08:51:50;100976.78;;;17.61;52.32
33153;BME280;19509;43.862;26.176;2023-05-08T08:54:20;100974.38;;;17.31;53.73
33153;BME280;19509;43.862;26.176;2023-05-08T08:56:48;100982.16;;;17.11;54.19
33153;BME280;19509;43.862;26.176;2023-05-08T08:59:15;100974.59;;;17.13;55.89
33153;BME280;19509;43.862;26.176;2023-05-08T09:01:44;100981.13;;;17.29;53.96
33153;BME280;19509;43.862;26.176;2023-05-08T09:04:11;100973.06;;;17.34;52.94
33153;BME280;19509;43.862;26.176;2023-05-08T09:06:38;100970.06;;;17.18;53.36
33153;BME280;19509;43.862;26.176;2023-05-08T09:09:05;100967.50;;;17.29;55.29
33153;BME280;19509;43.862;26.176;2023-05-08T09:11:31;100965.66;;;17.46;57.76
33153;BME280;19509;43.862;26.176;2023-05-08T09:13:57;100973.22;;;17.44;57.76
33153;BME280;19509;43.862;26.176;2023-05-08T09:16:23;100969.38;;;17.40;58.31
33153;BME280;19509;43.862;26.176;2023-05-08T09:18:49;100970.19;;;17.40;60.54
33153;BME280;19509;43.862;26.176;2023-05-08T09:21:14;100970.94;;;17.36;62.19
33153;BME280;19509;43.862;26.176;2023-05-08T09:29:23;100981.06;;;17.40;60.41
33153;BME280;19509;43.862;26.176;2023-05-08T09:31:50;100974.22;;;17.38;60.30
33153;BME280;19509;43.862;26.176;2023-05-08T09:34:30;100983.97;;;17.50;59.82
33153;BME280;19509;43.862;26.176;2023-05-08T09:39:28;100975.63;;;17.74;60.34
33153;BME280;19509;43.862;26.176;2023-05-08T09:41:59;100977.06;;;17.77;58.86
33153;BME280;19509;43.862;26.176;2023-05-08T09:44:25;100977.84;;;17.60;58.14
33153;BME280;19509;43.862;26.176;2023-05-08T09:46:50;100989.72;;;17.37;61.66
33153;BME280;19509;43.862;26.176;2023-05-08T09:49:17;101001.94;;;17.06;61.77
33153;BME280;19509;43.862;26.176;2023-05-08T09:51:51;101012.41;;;16.74;62.07
33153;BME280;19509;43.862;26.176;2023-05-08T09:54:18;101005.97;;;16.51;63.93
33153;BME280;19509;43.862;26.176;2023-05-08T09:56:44;101007.44;;;16.19;64.42
33153;BME280;19509;43.862;26.176;2023-05-08T09:59:24;101016.28;;;15.91;65.91
33153;BME280;19509;43.862;26.176;2023-05-08T10:01:51;101018.16;;;15.78;66.14
33153;BME280;19509;43.862;26.176;2023-05-08T10:04:17;101002.59;;;15.97;67.08
33153;BME280;19509;43.862;26.176;2023-05-08T10:06:57;101006.97;;;15.87;65.25
33153;BME280;19509;43.862;26.176;2023-05-08T10:09:23;101008.50;;;15.94;66.57
33153;BME280;19509;43.862;26.176;2023-05-08T10:11:50;101016.66;;;15.94;66.54
33153;BME280;19509;43.862;26.176;2023-05-08T10:14:21;101015.81;;;15.94;65.42
33153;BME280;19509;43.862;26.176;2023-05-08T10:16:48;101025.59;;;15.71;65.04
33153;BME280;19509;43.862;26.176;2023-05-08T10:19:17;101018.78;;;15.50;66.21
33153;BME280;19509;43.862;26.176;2023-05-08T10:21:50;101029.50;;;15.45;65.70
33153;BME280;19509;43.862;26.176;2023-05-08T10:24:18;101026.56;;;15.47;65.19
33153;BME280;19509;43.862;26.176;2023-05-08T10:27:16;101029.53;;;15.57;65.69
33153;BME280;19509;43.862;26.176;2023-05-08T10:30:07;101031.84;;;15.72;66.24
33153;BME280;19509;43.862;26.176;2023-05-08T10:32:37;101037.63;;;15.75;61.58
33153;BME280;19509;43.862;26.176;2023-05-08T10:35:08;101034.72;;;15.58;63.14
33153;BME280;19509;43.862;26.176;2023-05-08T10:37:35;101058.47;;;15.63;62.35
33153;BME280;19509;43.862;26.176;2023-05-08T10:40:02;101049.66;;;15.68;63.50
33153;BME280;19509;43.862;26.176;2023-05-08T10:42:29;101052.31;;;15.56;63.26
33153;BME280;19509;43.862;26.176;2023-05-08T10:44:55;101050.00;;;15.41;61.92
33153;BME280;19509;43.862;26.176;2023-05-08T10:47:29;101056.03;;;15.43;62.94
33153;BME280;19509;43.862;26.176;2023-05-08T10:53:21;101053.09;;;15.45;63.60
33153;BME280;19509;43.862;26.176;2023-05-08T10:55:50;101058.06;;;15.48;63.69
33153;BME280;19509;43.862;26.176;2023-05-08T11:03:15;101049.16;;;14.80;66.13
33153;BME280;19509;43.862;26.176;2023-05-08T11:05:48;101050.31;;;14.54;68.12
33153;BME280;19509;43.862;26.176;2023-05-08T11:08:18;101051.50;;;14.58;69.72
33153;BME280;19509;43.862;26.176;2023-05-08T11:13:41;101052.09;;;14.60;68.32
33153;BME280;19509;43.862;26.176;2023-05-08T11:16:09;101052.88;;;14.68;71.78
33153;BME280;19509;43.862;26.176;2023-05-08T11:18:35;101059.31;;;14.66;69.55
33153;BME280;19509;43.862;26.176;2023-05-08T11:21:05;101066.75;;;14.53;70.93
33153;BME280;19509;43.862;26.176;2023-05-08T11:23:38;101071.34;;;14.52;71.59
33153;BME280;19509;43.862;26.176;2023-05-08T11:26:12;101077.41;;;14.48;73.51
33153;BME280;19509;43.862;26.176;2023-05-08T11:28:39;101087.44;;;14.22;73.85
33153;BME280;19509;43.862;26.176;2023-05-08T11:31:07;101082.81;;;14.04;74.74
33153;BME280;19509;43.862;26.176;2023-05-08T11:33:36;101081.53;;;13.82;74.10
33153;BME280;19509;43.862;26.176;2023-05-08T11:36:12;101077.88;;;13.69;76.24
33153;BME280;19509;43.862;26.176;2023-05-08T11:38:39;101091.06;;;13.59;77.86
33153;BME280;19509;43.862;26.176;2023-05-08T11:41:06;101088.34;;;13.59;77.42
33153;BME280;19509;43.862;26.176;2023-05-08T11:46:02;101097.00;;;13.36;79.25
33153;BME280;19509;43.862;26.176;2023-05-08T11:48:29;101101.63;;;13.29;81.87
33153;BME280;19509;43.862;26.176;2023-05-08T11:50:55;101103.75;;;13.07;82.59
33153;BME280;19509;43.862;26.176;2023-05-08T11:53:21;101107.94;;;13.03;84.61
33153;BME280;19509;43.862;26.176;2023-05-08T11:55:51;101103.25;;;12.78;85.10
33153;BME280;19509;43.862;26.176;2023-05-08T11:58:17;101106.81;;;12.66;86.56
33153;BME280;19509;43.862;26.176;2023-05-08T12:00:44;101103.94;;;12.61;88.97
33153;BME280;19509;43.862;26.176;2023-05-08T12:03:20;101094.38;;;12.51;89.66
33153;BME280;19509;43.862;26.176;2023-05-08T12:05:47;101090.47;;;12.41;91.63
33153;BME280;19509;43.862;26.176;2023-05-08T12:08:14;101104.38;;;12.38;91.94
33153;BME280;19509;43.862;26.176;2023-05-08T12:10:52;101103.72;;;12.42;94.18
33153;BME280;19509;43.862;26.176;2023-05-08T12:13:26;101098.75;;;12.26;93.51
33153;BME280;19509;43.862;26.176;2023-05-08T12:15:56;101096.69;;;12.21;93.59
33153;BME280;19509;43.862;26.176;2023-05-08T12:18:24;101096.94;;;12.06;95.67
33153;BME280;19509;43.862;26.176;2023-05-08T12:20:56;101107.72;;;12.00;95.85
33153;BME280;19509;43.862;26.176;2023-05-08T12:23:23;101101.25;;;11.88;95.79
33153;BME280;19509;43.862;26.176;2023-05-08T12:25:53;101114.31;;;11.84;96.97
33153;BME280;19509;43.862;26.176;2023-05-08T12:28:19;101114.50;;;11.76;97.23
33153;BME280;19509;43.862;26.176;2023-05-08T12:30:45;101117.38;;;11.68;96.71
33153;BME280;19509;43.862;26.176;2023-05-08T12:33:11;101124.44;;;11.62;97.78
33153;BME280;19509;43.862;26.176;2023-05-08T12:35:37;101112.34;;;11.51;97.30
33153;BME280;19509;43.862;26.176;2023-05-08T12:38:05;101123.97;;;11.45;98.28
33153;BME280;19509;43.862;26.176;2023-05-08T12:40:33;101121.25;;;11.39;98.97
33153;BME280;19509;43.862;26.176;2023-05-08T12:43:00;101116.88;;;11.37;99.38
33153;BME280;19509;43.862;26.176;2023-05-08T12:45:28;101114.59;;;11.28;98.90
33153;BME280;19509;43.862;26.176;2023-05-08T12:48:00;101119.31;;;11.19;100.00
33153;BME280;19509;43.862;26.176;2023-05-08T12:50:26;101119.31;;;11.19;100.00
33153;BME280;19509;43.862;26.176;2023-05-08T12:52:52;101108.31;;;11.21;100.00
33153;BME280;19509;43.862;26.176;2023-05-08T12:55:22;101113.13;;;11.25;100.00
33153;BME280;19509;43.862;26.176;2023-05-08T12:57:49;101116.44;;;11.27;100.00
33153;BME280;19509;43.862;26.176;2023-05-08T13:00:16;101117.91;;;11.30;100.00
33153;BME280;19509;43.862;26.176;2023-05-08T13:02:53;101115.59;;;11.27;100.00
33153;BME280;19509;43.862;26.176;2023-05-08T13:05:22;101120.41;;;11.31;100.00
33153;BME280;19509;43.862;26.176;2023-05-08T13:07:51;101114.63;;;11.34;100.00
33153;BME280;19509;43.862;26.176;2023-05-08T13:10:16;101119.56;;;11.37;100.00
33153;BME280;19509;43.862;26.176;2023-05-08T13:12:46;101113.75;;;11.27;100.00
33153;BME280;19509;43.862;26.176;2023-05-08T13:15:12;101115.22;;;11.36;100.00
33153;BME280;19509;43.862;26.176;2023-05-08T13:17:37;101111.94;;;11.34;100.00
33153;BME280;19509;43.862;26.176;2023-05-08T13:20:03;101116.28;;;11.42;100.00
33153;BME280;19509;43.862;26.176;2023-05-08T13:22:29;101115.47;;;11.42;100.00
33153;BME280;19509;43.862;26.176;2023-05-08T13:24:55;101107.97;;;11.37;100.00
33153;BME280;19509;43.862;26.176;2023-05-08T13:27:20;101117.53;;;11.40;100.00
33153;BME280;19509;43.862;26.176;2023-05-08T13:29:46;101117.50;;;11.33;100.00